Time;durP1;ratioP1;P1;durP2;ratioP2;P2;SDS_P1;SDS_P2;PMS_P1;PMS_P2;Temp;Humidity;BMP_temperature;BMP_pressure;BME280_temperature;BME280_humidity;BME280_pressure;Samples;Min_cycle;Max_cycle;Signal;HPM_P1;HPM_P2
2023/03/27 00:01:29;;;;;;;0.93;0.65;;;;;;;7.91;72.15;95483.06;6154410;23;20438;-79
2023/03/27 00:03:57;;;;;;;1.38;0.70;;;;;;;7.87;72.10;95487.03;6155495;23;20406;-78
2023/03/27 00:06:26;;;;;;;0.30;0.30;;;;;;;7.80;71.80;95481.81;6155160;23;20414;-78
2023/03/27 00:08:53;;;;;;;0.73;0.60;;;;;;;7.70;72.15;95482.16;6156064;23;20096;-79
2023/03/27 00:11:23;;;;;;;1.80;0.63;;;;;;;7.69;72.46;95488.34;6167068;23;20029;-79
2023/03/27 00:13:53;;;;;;;2.97;0.70;;;;;;;7.67;72.12;95485.13;6171113;23;20026;-79
2023/03/27 00:16:25;;;;;;;0.70;0.50;;;;;;;7.69;74.78;95487.53;6159989;23;20061;-78
2023/03/27 00:18:53;;;;;;;0.60;0.55;;;;;;;7.72;74.17;95487.16;6155932;23;20021;-78
2023/03/27 00:21:22;;;;;;;1.52;0.70;;;;;;;7.76;74.68;95491.78;6155105;23;20025;-79
2023/03/27 00:23:50;;;;;;;0.63;0.55;;;;;;;7.77;73.50;95483.00;6155455;23;20055;-79
2023/03/27 00:26:20;;;;;;;1.20;0.60;;;;;;;7.76;73.34;95486.59;6155311;23;20018;-78
2023/03/27 00:28:48;;;;;;;1.25;0.75;;;;;;;7.71;73.62;95483.75;6155574;23;20025;-78
2023/03/27 00:31:16;;;;;;;0.60;0.60;;;;;;;7.66;73.48;95490.53;6154813;23;20066;-78
2023/03/27 00:33:45;;;;;;;1.45;0.80;;;;;;;7.55;73.54;95495.25;6156169;23;20030;-78
2023/03/27 00:36:14;;;;;;;1.00;1.00;;;;;;;7.51;73.36;95491.41;6155443;23;20100;-79
2023/03/27 00:38:42;;;;;;;2.97;0.70;;;;;;;7.47;73.57;95497.19;6154700;23;20018;-78
2023/03/27 00:41:11;;;;;;;1.55;0.98;;;;;;;7.47;74.64;95494.59;6154586;23;20100;-78
2023/03/27 00:43:42;;;;;;;0.77;0.55;;;;;;;7.46;73.81;95501.56;6155343;23;20021;-78
2023/03/27 00:46:27;;;;;;;0.65;0.65;;;;;;;7.46;76.23;95504.16;6155014;23;20018;-78
2023/03/27 00:48:56;;;;;;;0.75;0.60;;;;;;;7.41;74.26;95499.56;6155551;23;20402;-78
2023/03/27 00:51:26;;;;;;;1.27;0.80;;;;;;;7.40;75.41;95507.50;6154706;23;20076;-79
2023/03/27 00:53:55;;;;;;;1.02;0.93;;;;;;;7.40;75.26;95508.31;6154788;23;20104;-78
2023/03/27 00:56:24;;;;;;;1.33;1.23;;;;;;;7.43;75.26;95512.31;6155008;23;20282;-79
2023/03/27 00:58:55;;;;;;;0.98;0.50;;;;;;;7.42;75.43;95495.94;6154594;23;20100;-78
2023/03/27 01:01:26;;;;;;;0.85;0.80;;;;;;;7.40;74.51;95503.13;6154474;23;20053;-78
2023/03/27 01:04:00;;;;;;;1.08;0.80;;;;;;;7.41;75.00;95498.72;6155042;23;20025;-78
2023/03/27 01:06:29;;;;;;;1.63;1.02;;;;;;;7.43;75.38;95499.34;6155134;23;20024;-78
2023/03/27 01:08:57;;;;;;;0.88;0.88;;;;;;;7.43;74.73;95497.56;6154490;23;20088;-78
2023/03/27 01:11:38;;;;;;;1.70;0.93;;;;;;;7.44;74.98;95500.97;6154139;23;20570;-79
2023/03/27 01:14:15;;;;;;;0.57;0.50;;;;;;;7.46;74.82;95498.19;6155167;23;20053;-78
2023/03/27 01:16:52;;;;;;;0.68;0.68;;;;;;;7.42;75.48;95501.13;6154705;23;20101;-79
2023/03/27 01:19:53;;;;;;;1.40;0.75;;;;;;;7.42;77.01;95503.75;6157027;23;20037;-78
2023/03/27 01:22:45;;;;;;;0.80;0.35;;;;;;;7.40;75.82;95508.31;6147124;23;20017;-78
2023/03/27 01:25:33;;;;;;;1.30;0.40;;;;;;;7.38;76.02;95510.28;6156459;23;20032;-79
2023/03/27 01:28:29;;;;;;;0.60;0.60;;;;;;;7.39;76.30;95511.09;6156892;23;20048;-78
2023/03/27 01:31:02;;;;;;;0.50;0.50;;;;;;;7.37;75.57;95502.72;6156827;23;20022;-78
2023/03/27 01:33:57;;;;;;;1.17;0.57;;;;;;;7.34;75.28;95511.66;6156690;23;20021;-79
2023/03/27 01:37:02;;;;;;;0.40;0.40;;;;;;;7.31;75.54;95519.81;6156457;23;20484;-79
2023/03/27 01:39:39;;;;;;;0.52;0.52;;;;;;;7.24;74.30;95524.16;6137050;23;20459;-79
2023/03/27 01:42:17;;;;;;;0.68;0.50;;;;;;;7.17;75.27;95529.28;6156043;23;20025;-79
2023/03/27 01:44:50;;;;;;;0.63;0.45;;;;;;;7.14;74.62;95536.63;6153666;23;20033;-79
2023/03/27 01:47:36;;;;;;;0.68;0.47;;;;;;;7.05;74.37;95546.31;6154007;23;20481;-79
2023/03/27 01:50:10;;;;;;;2.28;0.80;;;;;;;6.97;74.25;95552.44;6155645;23;20088;-79
2023/03/27 01:52:41;;;;;;;0.50;0.30;;;;;;;6.87;73.36;95559.72;6152483;23;20222;-79
2023/03/27 01:55:17;;;;;;;0.20;0.20;;;;;;;6.81;73.51;95561.25;6153025;23;20018;-78
2023/03/27 01:57:50;;;;;;;0.13;0.13;;;;;;;6.75;73.04;95574.13;6149302;23;20096;-78
2023/03/27 02:00:22;;;;;;;0.10;0.10;;;;;;;6.68;73.05;95587.03;6152187;23;20197;-78
2023/03/27 02:02:53;;;;;;;0.10;0.10;;;;;;;6.64;73.65;95590.16;6153398;23;20087;-78
2023/03/27 02:05:26;;;;;;;0.08;0.08;;;;;;;6.60;73.56;95590.53;6154731;23;20072;-78
2023/03/27 02:07:59;;;;;;;0.15;0.10;;;;;;;6.58;73.63;95602.03;6156132;23;20032;-79
2023/03/27 02:10:33;;;;;;;1.55;0.30;;;;;;;6.58;75.21;95599.44;6155900;23;20021;-78
2023/03/27 02:13:07;;;;;;;0.10;0.10;;;;;;;6.56;74.23;95607.44;6155430;23;20022;-79
2023/03/27 02:15:39;;;;;;;0.10;0.10;;;;;;;6.53;74.20;95612.16;6156390;23;20022;-79
2023/03/27 02:18:12;;;;;;;0.10;0.10;;;;;;;6.54;74.38;95609.41;6156894;23;20099;-78
2023/03/27 02:20:41;;;;;;;0.65;0.10;;;;;;;6.54;73.69;95624.94;6156610;23;20025;-79
2023/03/27 02:23:09;;;;;;;1.95;0.30;;;;;;;6.50;73.93;95626.28;6155531;23;20030;-79
2023/03/27 02:25:40;;;;;;;0.10;0.10;;;;;;;6.47;73.85;95626.66;6156109;23;20032;-79
2023/03/27 02:28:21;;;;;;;0.63;0.57;;;;;;;6.46;76.03;95640.56;6156384;23;20022;-79
2023/03/27 02:30:58;;;;;;;0.10;0.08;;;;;;;6.39;73.83;95644.88;6156070;23;20036;-78
2023/03/27 02:33:41;;;;;;;0.10;0.10;;;;;;;6.34;75.12;95652.34;6154982;23;20017;-78
2023/03/27 02:36:21;;;;;;;0.10;0.10;;;;;;;6.32;74.64;95664.69;6155401;23;20025;-79
2023/03/27 02:38:57;;;;;;;0.30;0.30;;;;;;;6.27;74.25;95670.38;6156073;23;20406;-78
2023/03/27 02:41:34;;;;;;;0.28;0.28;;;;;;;6.19;73.76;95676.47;6155464;23;20026;-79
2023/03/27 02:44:10;;;;;;;0.40;0.20;;;;;;;6.10;73.12;95687.06;6156230;23;20022;-79
2023/03/27 02:46:44;;;;;;;0.45;0.30;;;;;;;5.97;73.60;95692.88;6156197;23;20021;-79
2023/03/27 02:49:18;;;;;;;0.40;0.40;;;;;;;5.92;74.38;95702.88;6156070;23;20069;-78
2023/03/27 02:51:50;;;;;;;1.23;0.25;;;;;;;5.88;74.24;95705.03;6155830;23;20049;-79
2023/03/27 02:54:22;;;;;;;0.43;0.40;;;;;;;5.90;73.72;95722.97;6156622;23;20398;-78
2023/03/27 02:56:54;;;;;;;0.55;0.55;;;;;;;5.92;74.33;95721.00;6156273;23;20474;-78
2023/03/27 02:59:26;;;;;;;0.40;0.40;;;;;;;5.93;73.79;95730.41;6156801;23;20022;-79
2023/03/27 03:01:55;;;;;;;0.38;0.35;;;;;;;5.98;74.62;95738.47;6156641;23;20104;-79
2023/03/27 03:04:27;;;;;;;0.40;0.40;;;;;;;6.01;74.26;95740.69;6156369;23;20028;-79
2023/03/27 03:06:55;;;;;;;0.68;0.65;;;;;;;6.00;73.20;95752.03;6156517;23;20114;-78
2023/03/27 03:09:24;;;;;;;0.68;0.68;;;;;;;5.91;73.70;95764.22;6156458;23;20028;-78
2023/03/27 03:11:54;;;;;;;0.70;0.70;;;;;;;5.85;73.74;95777.84;6156050;23;20100;-78
2023/03/27 03:14:26;;;;;;;0.70;0.70;;;;;;;5.80;72.97;95779.34;6157051;23;20028;-79
2023/03/27 03:16:53;;;;;;;0.68;0.68;;;;;;;5.73;72.56;95792.97;6169751;23;20024;-79
2023/03/27 03:19:22;;;;;;;0.55;0.40;;;;;;;5.64;73.26;95793.16;6176196;23;20025;-79
2023/03/27 03:21:50;;;;;;;0.80;0.80;;;;;;;5.58;74.07;95803.22;6164469;23;20025;-79
2023/03/27 03:24:18;;;;;;;0.93;0.50;;;;;;;5.61;74.44;95814.22;6158185;23;20100;-78
2023/03/27 03:26:48;;;;;;;0.40;0.38;;;;;;;5.58;73.54;95820.53;6157219;23;20017;-78
2023/03/27 03:29:18;;;;;;;0.80;0.70;;;;;;;5.48;73.33;95828.50;6156241;23;20044;-78
2023/03/27 03:31:47;;;;;;;0.70;0.40;;;;;;;5.41;72.82;95837.13;6158311;23;20022;-79
2023/03/27 03:34:17;;;;;;;1.65;0.70;;;;;;;5.29;72.35;95845.25;6178919;23;20025;-78
2023/03/27 03:36:47;;;;;;;0.82;0.50;;;;;;;5.19;73.14;95849.00;6179917;23;20021;-78
2023/03/27 03:39:17;;;;;;;0.40;0.40;;;;;;;5.15;72.89;95853.69;6178886;23;20025;-78
2023/03/27 03:41:44;;;;;;;0.70;0.50;;;;;;;5.12;73.51;95859.19;6176904;23;20533;-78
2023/03/27 03:44:12;;;;;;;0.55;0.55;;;;;;;5.08;73.25;95874.22;6175521;23;20073;-78
2023/03/27 03:46:41;;;;;;;2.25;0.50;;;;;;;5.08;73.71;95883.75;6176926;23;20030;-79
2023/03/27 03:49:09;;;;;;;1.80;0.60;;;;;;;5.08;74.24;95888.94;6176214;23;20022;-78
2023/03/27 03:51:37;;;;;;;1.58;0.68;;;;;;;5.11;74.19;95902.31;6175127;23;20032;-79
2023/03/27 03:54:05;;;;;;;0.65;0.50;;;;;;;5.08;73.65;95907.03;6158941;23;20068;-78
2023/03/27 03:56:33;;;;;;;0.63;0.50;;;;;;;5.04;73.38;95913.50;6157339;23;20403;-78
2023/03/27 03:59:01;;;;;;;1.42;0.60;;;;;;;5.02;73.53;95929.16;6157063;23;20055;-78
2023/03/27 04:01:29;;;;;;;0.65;0.65;;;;;;;4.98;73.87;95934.81;6155623;23;20105;-78
2023/03/27 04:03:58;;;;;;;0.50;0.50;;;;;;;4.99;73.92;95936.44;6157378;23;20022;-78
2023/03/27 04:06:26;;;;;;;0.85;0.73;;;;;;;5.00;73.97;95943.22;6156870;23;20051;-78
2023/03/27 04:08:53;;;;;;;0.50;0.40;;;;;;;5.00;74.06;95954.34;6156941;23;20108;-78
2023/03/27 04:11:21;;;;;;;0.60;0.60;;;;;;;4.98;73.52;95960.66;6156210;23;20036;-78
2023/03/27 04:13:49;;;;;;;0.65;0.50;;;;;;;4.96;73.95;95963.41;6155966;23;20028;-78
2023/03/27 04:16:16;;;;;;;0.40;0.40;;;;;;;4.92;73.31;95975.84;6156383;23;20112;-78
2023/03/27 04:18:44;;;;;;;0.75;0.60;;;;;;;4.83;73.52;95982.00;6155498;23;20084;-78
2023/03/27 04:21:14;;;;;;;1.45;0.77;;;;;;;4.83;73.87;95994.09;6155909;23;20032;-78
2023/03/27 04:23:41;;;;;;;0.45;0.45;;;;;;;4.77;73.35;95998.13;6155519;23;20020;-78
2023/03/27 04:26:10;;;;;;;0.40;0.40;;;;;;;4.72;73.77;96005.53;6155877;23;20028;-78
2023/03/27 04:28:39;;;;;;;0.57;0.43;;;;;;;4.74;74.75;96016.53;6156097;23;20498;-78
2023/03/27 04:31:09;;;;;;;0.65;0.30;;;;;;;4.77;73.86;96021.41;6155634;23;20073;-78
2023/03/27 04:33:45;;;;;;;0.52;0.52;;;;;;;4.75;73.25;96024.13;6155581;23;20100;-78
2023/03/27 04:36:14;;;;;;;1.35;0.45;;;;;;;4.71;73.38;96038.31;6156266;23;20351;-78
2023/03/27 04:38:42;;;;;;;0.82;0.50;;;;;;;4.64;72.44;96049.47;6156001;23;20017;-78
2023/03/27 04:41:09;;;;;;;0.20;0.20;;;;;;;4.51;71.94;96050.72;6155662;23;20475;-78
2023/03/27 04:43:38;;;;;;;0.30;0.30;;;;;;;4.39;71.84;96054.53;6155783;23;20017;-78
2023/03/27 04:46:07;;;;;;;0.80;0.40;;;;;;;4.29;72.10;96056.47;6155779;23;20072;-78
2023/03/27 04:48:37;;;;;;;0.32;0.32;;;;;;;4.21;72.03;96064.97;6155877;23;20057;-78
2023/03/27 04:51:08;;;;;;;0.47;0.40;;;;;;;4.17;71.90;96070.59;6155774;23;20606;-78
2023/03/27 04:53:37;;;;;;;1.05;0.75;;;;;;;4.11;72.03;96080.59;6157914;23;20029;-78
2023/03/27 04:56:07;;;;;;;0.80;0.80;;;;;;;4.05;71.64;96091.53;6157510;23;20358;-78
2023/03/27 04:58:34;;;;;;;2.70;1.58;;;;;;;3.97;73.02;96101.78;6157737;23;20072;-81
2023/03/27 05:01:04;;;;;;;1.52;1.20;;;;;;;3.84;72.39;96119.44;6159825;23;20565;-81
2023/03/27 05:03:33;;;;;;;1.75;1.02;;;;;;;3.74;73.28;96121.31;6157235;23;20053;-78
2023/03/27 05:06:02;;;;;;;1.80;0.90;;;;;;;3.71;72.94;96128.38;6157290;23;20065;-78
2023/03/27 05:08:30;;;;;;;1.15;0.93;;;;;;;3.59;72.46;96139.91;6157704;23;20021;-78
2023/03/27 05:10:59;;;;;;;0.82;0.80;;;;;;;3.53;73.34;96130.19;6157387;23;20047;-78
2023/03/27 05:13:27;;;;;;;2.88;1.15;;;;;;;3.54;73.43;96142.13;6157492;23;20096;-79
2023/03/27 05:15:57;;;;;;;2.35;1.20;;;;;;;3.55;73.57;96142.94;6156894;23;20026;-78
2023/03/27 05:18:26;;;;;;;1.23;1.00;;;;;;;3.57;73.36;96154.72;6157461;23;20028;-78
2023/03/27 05:20:55;;;;;;;3.35;1.88;;;;;;;3.50;73.06;96153.72;6157471;23;20049;-78
2023/03/27 05:23:23;;;;;;;3.80;1.50;;;;;;;3.44;73.40;96165.41;6157435;23;20033;-78
2023/03/27 05:25:51;;;;;;;1.60;1.42;;;;;;;3.45;73.83;96167.03;6156868;23;20041;-78
2023/03/27 05:28:29;;;;;;;4.20;2.47;;;;;;;3.44;73.05;96177.50;6157202;23;20021;-80
2023/03/27 05:30:56;;;;;;;3.67;2.13;;;;;;;3.35;72.84;96175.81;6156550;23;20092;-78
2023/03/27 05:33:24;;;;;;;7.55;2.53;;;;;;;3.25;73.54;96187.00;6156455;23;20021;-77
2023/03/27 05:35:53;;;;;;;10.48;2.67;;;;;;;3.19;73.75;96187.59;6155581;23;20026;-78
2023/03/27 05:38:21;;;;;;;7.10;2.70;;;;;;;3.13;74.03;96195.91;6156565;23;20021;-77
2023/03/27 05:40:51;;;;;;;6.93;2.75;;;;;;;3.09;73.89;96194.56;6156916;23;20026;-77
2023/03/27 05:43:18;;;;;;;12.90;3.28;;;;;;;3.04;74.60;96201.91;6155953;23;20021;-77
2023/03/27 05:45:48;;;;;;;14.65;3.80;;;;;;;2.98;73.85;96215.38;6156430;23;20017;-77
2023/03/27 05:48:16;;;;;;;10.45;3.88;;;;;;;2.93;74.20;96213.25;6156367;23;20481;-77
2023/03/27 05:50:43;;;;;;;5.13;3.35;;;;;;;2.85;73.69;96228.59;6156317;23;20105;-77
2023/03/27 05:53:11;;;;;;;10.70;4.15;;;;;;;2.84;74.81;96227.78;6156742;23;20026;-77
2023/03/27 05:55:39;;;;;;;7.50;3.28;;;;;;;2.82;73.54;96241.75;6157475;23;20025;-77
2023/03/27 05:58:08;;;;;;;8.40;4.28;;;;;;;2.79;74.62;96239.47;6157092;23;20100;-77
2023/03/27 06:00:37;;;;;;;10.95;3.60;;;;;;;2.80;74.17;96241.91;6157402;23;20379;-77
2023/03/27 06:03:06;;;;;;;7.25;3.40;;;;;;;2.81;74.47;96255.59;6155940;23;20025;-77
2023/03/27 06:05:34;;;;;;;13.88;3.90;;;;;;;2.75;73.99;96269.84;6157451;23;20363;-77
2023/03/27 06:08:02;;;;;;;14.90;4.07;;;;;;;2.69;74.42;96270.41;6157326;23;20096;-77
2023/03/27 06:10:32;;;;;;;7.57;3.08;;;;;;;2.71;74.51;96280.56;6157383;23;20021;-77
2023/03/27 06:13:01;;;;;;;12.43;3.83;;;;;;;2.62;73.81;96287.34;6157080;23;20414;-77
2023/03/27 06:15:29;;;;;;;9.90;3.25;;;;;;;2.54;73.84;96282.94;6157247;23;20356;-77
2023/03/27 06:17:57;;;;;;;9.27;4.22;;;;;;;2.46;74.09;96288.75;6157279;23;20365;-77
2023/03/27 06:20:26;;;;;;;11.98;3.30;;;;;;;2.46;74.16;96299.06;6157722;23;20025;-77
2023/03/27 06:22:58;;;;;;;9.02;3.28;;;;;;;2.47;74.20;96313.56;6160086;23;20096;-77
2023/03/27 06:25:27;;;;;;;11.40;3.30;;;;;;;2.55;74.66;96312.84;6178635;23;20100;-77
2023/03/27 06:27:54;;;;;;;11.35;4.03;;;;;;;2.60;74.74;96320.16;6170972;23;20415;-77
2023/03/27 06:30:24;;;;;;;10.57;3.30;;;;;;;2.61;74.19;96330.34;6159941;23;20032;-77
2023/03/27 06:32:56;;;;;;;8.32;3.28;;;;;;;2.65;74.73;96331.69;6156505;23;20048;-77
2023/03/27 06:35:26;;;;;;;12.93;3.90;;;;;;;2.67;73.70;96339.28;6156643;23;20025;-77
2023/03/27 06:37:57;;;;;;;9.80;3.75;;;;;;;2.64;73.62;96342.13;6157443;23;20303;-77
2023/03/27 06:40:27;;;;;;;9.30;3.30;;;;;;;2.63;75.06;96353.38;6157244;23;20100;-77
2023/03/27 06:42:57;;;;;;;7.75;3.42;;;;;;;2.63;74.08;96355.97;6156475;23;20025;-77
2023/03/27 06:45:26;;;;;;;11.70;3.50;;;;;;;2.62;73.52;96370.59;6157036;23;20026;-77
2023/03/27 06:47:57;;;;;;;7.85;3.30;;;;;;;2.57;73.93;96369.38;6156955;23;20328;-77
2023/03/27 06:50:48;;;;;;;8.98;2.97;;;;;;;2.54;73.01;96385.13;6156743;23;20052;-77
2023/03/27 06:53:16;;;;;;;13.05;3.75;;;;;;;2.51;73.87;96390.53;6156581;23;20033;-77
2023/03/27 06:55:47;;;;;;;6.35;3.20;;;;;;;2.51;74.12;96391.31;6156272;23;20367;-77
2023/03/27 06:58:17;;;;;;;10.43;3.40;;;;;;;2.59;75.25;96394.03;6156270;23;20018;-77
2023/03/27 07:00:45;;;;;;;8.55;3.30;;;;;;;2.64;73.73;96403.91;6156541;23;20029;-77
2023/03/27 07:03:13;;;;;;;9.82;3.60;;;;;;;2.62;73.60;96406.66;6155810;23;20029;-77
2023/03/27 07:05:42;;;;;;;6.82;3.10;;;;;;;2.59;73.55;96408.69;6156619;23;20029;-77
2023/03/27 07:08:13;;;;;;;10.25;3.05;;;;;;;2.57;72.96;96416.53;6156121;23;20025;-77
2023/03/27 07:10:51;;;;;;;14.95;3.67;;;;;;;2.61;73.37;96424.81;6156819;23;20022;-77
2023/03/27 07:13:36;;;;;;;8.32;3.33;;;;;;;2.63;72.91;96425.50;6156640;23;20031;-77
2023/03/27 07:16:05;;;;;;;12.90;4.05;;;;;;;2.62;72.81;96432.41;6157219;23;20336;-77
2023/03/27 07:18:33;;;;;;;8.93;3.28;;;;;;;2.61;73.18;96441.06;6156359;23;20088;-77
2023/03/27 07:21:00;;;;;;;9.63;3.70;;;;;;;2.66;74.00;96451.75;6156866;23;20022;-77
2023/03/27 07:23:29;;;;;;;10.05;3.20;;;;;;;2.68;73.37;96449.06;6156121;23;20028;-77
2023/03/27 07:25:57;;;;;;;12.70;4.45;;;;;;;2.66;72.63;96459.50;6156169;23;20028;-77
2023/03/27 07:28:25;;;;;;;8.25;3.42;;;;;;;2.65;73.38;96464.78;6155833;23;20466;-77
2023/03/27 07:30:53;;;;;;;11.07;3.25;;;;;;;2.62;72.86;96467.63;6155750;23;20036;-77
2023/03/27 07:33:21;;;;;;;8.10;3.45;;;;;;;2.64;73.68;96473.44;6156124;23;20414;-77
2023/03/27 07:35:49;;;;;;;7.82;3.40;;;;;;;2.63;72.84;96477.00;6156529;23;20350;-77
2023/03/27 07:38:17;;;;;;;7.25;3.20;;;;;;;2.63;73.44;96492.44;6156603;23;20025;-77
2023/03/27 07:40:46;;;;;;;9.38;3.30;;;;;;;2.60;72.53;96495.28;6156404;23;20025;-77
2023/03/27 07:43:14;;;;;;;6.40;3.17;;;;;;;2.53;72.98;96497.56;6155810;23;20359;-77
2023/03/27 07:45:42;;;;;;;8.68;3.50;;;;;;;2.53;72.65;96513.03;6155838;23;20644;-77
2023/03/27 07:48:13;;;;;;;8.68;3.90;;;;;;;2.53;73.33;96515.59;6156757;23;20018;-77
2023/03/27 07:50:41;;;;;;;8.52;3.63;;;;;;;2.62;73.83;96524.28;6176354;23;20085;-76
2023/03/27 07:53:09;;;;;;;13.73;3.60;;;;;;;2.69;73.05;96522.81;6175685;23;20041;-77
2023/03/27 07:55:58;;;;;;;11.77;3.58;;;;;;;2.78;73.39;96531.50;6178795;23;20025;-77
2023/03/27 07:58:26;;;;;;;9.52;3.28;;;;;;;2.87;73.92;96541.00;6168779;23;20021;-77
2023/03/27 08:00:54;;;;;;;11.07;4.25;;;;;;;2.93;73.08;96552.50;6160154;23;20053;-77
2023/03/27 08:03:24;;;;;;;13.18;3.53;;;;;;;2.94;72.17;96547.22;6157000;23;20029;-77
2023/03/27 08:05:53;;;;;;;11.50;5.13;;;;;;;2.95;72.08;96563.47;6157281;23;20022;-77
2023/03/27 08:08:22;;;;;;;12.38;4.30;;;;;;;2.99;72.41;96567.44;6156789;23;20057;-77
2023/03/27 08:10:50;;;;;;;8.77;3.22;;;;;;;3.01;72.86;96573.25;6155937;23;20028;-77
2023/03/27 08:13:19;;;;;;;10.15;3.28;;;;;;;3.03;72.16;96576.53;6155382;23;20049;-77
2023/03/27 08:15:47;;;;;;;8.35;3.33;;;;;;;3.05;71.84;96574.63;6156027;23;20379;-77
2023/03/27 08:18:14;;;;;;;17.98;5.47;;;;;;;3.09;71.70;96581.13;6155827;23;20017;-77
2023/03/27 08:20:42;;;;;;;6.05;2.75;;;;;;;3.08;71.55;96579.50;6155556;23;20027;-77
2023/03/27 08:23:10;;;;;;;12.88;3.90;;;;;;;3.06;71.28;96586.53;6154727;23;20092;-77
2023/03/27 08:25:37;;;;;;;8.23;3.10;;;;;;;3.07;71.09;96598.50;6155497;23;20037;-77
2023/03/27 08:28:06;;;;;;;10.45;2.83;;;;;;;3.09;71.36;96596.59;6155472;23;20021;-77
2023/03/27 08:30:35;;;;;;;6.70;3.15;;;;;;;3.13;71.31;96600.53;6155678;23;20108;-77
2023/03/27 08:33:03;;;;;;;9.38;3.28;;;;;;;3.20;72.32;96601.63;6155345;23;20030;-77
2023/03/27 08:35:31;;;;;;;8.68;2.60;;;;;;;3.28;71.90;96612.06;6155352;23;20022;-77
2023/03/27 08:37:58;;;;;;;10.40;2.72;;;;;;;3.33;72.02;96610.84;6155230;23;20029;-77
2023/03/27 08:40:29;;;;;;;9.05;3.00;;;;;;;3.38;70.70;96613.81;6155535;23;20025;-77
2023/03/27 08:43:06;;;;;;;5.30;3.10;;;;;;;3.42;69.83;96626.31;6155111;23;20390;-77
2023/03/27 08:45:42;;;;;;;3.70;2.70;;;;;;;3.55;70.15;96618.31;6155752;23;20392;-77
2023/03/27 08:48:16;;;;;;;7.47;3.42;;;;;;;3.76;70.37;96627.63;6155526;23;20026;-77
2023/03/27 08:50:49;;;;;;;7.07;2.35;;;;;;;3.87;69.03;96628.31;6155345;23;20028;-77
2023/03/27 08:53:23;;;;;;;6.33;2.33;;;;;;;3.90;67.15;96642.69;6155277;23;20358;-77
2023/03/27 08:55:51;;;;;;;4.00;2.50;;;;;;;3.93;68.45;96647.56;6155122;23;20028;-78
2023/03/27 08:58:21;;;;;;;5.43;2.20;;;;;;;4.01;68.33;96642.53;6155114;23;20025;-76
2023/03/27 09:00:58;;;;;;;9.93;2.60;;;;;;;4.09;67.37;96641.84;6155089;23;20101;-77
2023/03/27 09:03:31;;;;;;;6.97;2.20;;;;;;;4.13;66.30;96658.66;6154764;23;20025;-77
2023/03/27 09:06:02;;;;;;;;;;;;;;;4.16;64.39;96660.16;6156011;23;20036;-77
2023/03/27 09:08:42;;;;;;;6.43;2.55;;;;;;;4.12;65.68;96663.00;6155419;23;19916;-78
2023/03/27 09:11:22;;;;;;;8.57;2.05;;;;;;;4.17;64.43;96666.94;6154905;23;20403;-77
2023/03/27 09:13:51;;;;;;;5.28;2.15;;;;;;;4.22;63.62;96662.16;6155302;23;20489;-77
2023/03/27 09:16:26;;;;;;;5.22;1.50;;;;;;;4.34;62.78;96666.22;6155772;23;20022;-77
2023/03/27 09:18:59;;;;;;;6.45;1.90;;;;;;;4.56;64.56;96675.38;6155212;23;20033;-78
2023/03/27 09:21:34;;;;;;;4.88;1.85;;;;;;;4.76;63.31;96670.94;6154639;23;20032;-77
2023/03/27 09:24:09;;;;;;;6.43;1.67;;;;;;;4.85;60.64;96674.44;6155467;23;20347;-78
2023/03/27 09:26:37;;;;;;;3.83;1.52;;;;;;;4.90;61.93;96674.84;6154998;23;20028;-77
2023/03/27 09:29:15;;;;;;;4.22;1.27;;;;;;;4.92;58.75;96684.06;6155170;23;20474;-77
2023/03/27 09:31:49;;;;;;;5.22;1.15;;;;;;;4.97;59.38;96683.63;6155052;23;20021;-77
2023/03/27 09:34:22;;;;;;;5.15;1.27;;;;;;;5.11;58.51;96690.06;6166526;23;20025;-77
2023/03/27 09:36:50;;;;;;;4.20;1.30;;;;;;;5.34;58.87;96693.88;6172806;23;20048;-78
2023/03/27 09:39:21;;;;;;;5.85;1.15;;;;;;;5.62;57.93;96693.81;6163110;23;20514;-77
2023/03/27 09:41:53;;;;;;;4.10;1.20;;;;;;;5.93;56.98;96701.19;6156987;23;20379;-77
2023/03/27 09:44:25;;;;;;;4.55;1.42;;;;;;;6.15;56.42;96694.75;6157325;23;20021;-77
2023/03/27 09:46:58;;;;;;;6.00;1.85;;;;;;;6.30;55.55;96695.81;6156818;23;20025;-77
2023/03/27 09:49:27;;;;;;;3.65;0.82;;;;;;;6.38;55.29;96697.63;6157223;23;20026;-78
2023/03/27 09:51:57;;;;;;;3.65;1.05;;;;;;;6.37;54.33;96706.38;6156502;23;20018;-78
2023/03/27 09:54:27;;;;;;;3.00;1.58;;;;;;;6.53;56.03;96713.44;6156970;23;20076;-78
2023/03/27 09:57:01;;;;;;;3.20;1.40;;;;;;;6.74;54.33;96715.66;6156859;23;20033;-77
2023/03/27 09:59:32;;;;;;;4.35;1.00;;;;;;;6.82;52.85;96718.28;6156262;23;20443;-77
2023/03/27 10:02:15;;;;;;;4.20;1.23;;;;;;;6.88;51.78;96717.66;6155708;23;20020;-78
2023/03/27 10:04:58;;;;;;;3.45;1.27;;;;;;;6.87;49.57;96726.41;6156741;23;20028;-77
2023/03/27 10:07:26;;;;;;;4.93;1.33;;;;;;;6.88;51.92;96725.44;6156665;23;20108;-77
2023/03/27 10:10:07;;;;;;;5.75;1.27;;;;;;;7.18;52.36;96723.28;6155761;23;20104;-77
2023/03/27 10:12:36;;;;;;;3.60;1.23;;;;;;;7.46;51.02;96729.06;6155436;23;20029;-77
2023/03/27 10:15:06;;;;;;;4.53;1.20;;;;;;;7.52;50.12;96727.59;6156345;23;20029;-77
2023/03/27 10:17:38;;;;;;;2.42;0.90;;;;;;;7.55;50.48;96724.69;6155983;23;20022;-77
2023/03/27 10:20:12;;;;;;;2.63;1.07;;;;;;;7.53;55.21;96732.63;6155763;23;20470;-77
2023/03/27 10:22:42;;;;;;;1.65;0.90;;;;;;;7.45;51.50;96740.38;6155622;23;20049;-77
2023/03/27 10:25:17;;;;;;;6.45;0.85;;;;;;;7.30;50.38;96737.59;6156017;23;20120;-78
2023/03/27 10:27:45;;;;;;;3.33;0.75;;;;;;;7.17;51.08;96737.22;6156260;23;20022;-78
2023/03/27 10:30:32;;;;;;;3.97;1.00;;;;;;;7.10;49.04;96746.59;6156360;23;20056;-77
2023/03/27 10:33:01;;;;;;;3.00;0.98;;;;;;;7.11;49.79;96753.44;6155243;23;20053;-77
2023/03/27 10:35:33;;;;;;;3.30;0.95;;;;;;;7.19;48.86;96746.50;6155721;23;20025;-77
2023/03/27 10:38:06;;;;;;;3.08;0.77;;;;;;;7.32;48.35;96740.03;6156198;23;20100;-77
2023/03/27 10:40:36;;;;;;;5.47;1.00;;;;;;;7.39;47.35;96748.81;6155986;23;20028;-78
2023/03/27 10:43:09;;;;;;;1.55;0.75;;;;;;;7.33;46.69;96745.06;6155489;23;20021;-78
2023/03/27 10:45:46;;;;;;;5.20;0.80;;;;;;;7.20;46.42;96742.91;6156157;23;20064;-77
2023/03/27 10:48:36;;;;;;;3.75;0.60;;;;;;;7.06;45.95;96746.09;6156255;23;20454;-77
2023/03/27 10:51:08;;;;;;;1.65;0.55;;;;;;;6.97;47.71;96742.66;6156468;23;20018;-77
2023/03/27 10:53:41;;;;;;;1.98;0.55;;;;;;;6.95;46.62;96746.38;6157097;23;20100;-77
2023/03/27 10:56:14;;;;;;;5.65;0.70;;;;;;;6.93;46.63;96751.72;6156860;23;20399;-77
2023/03/27 10:58:47;;;;;;;3.50;0.95;;;;;;;6.91;47.59;96748.47;6156496;23;20026;-77
2023/03/27 11:01:23;;;;;;;3.50;1.20;;;;;;;7.05;48.49;96759.25;6155743;23;20017;-78
2023/03/27 11:03:59;;;;;;;2.53;0.77;;;;;;;7.28;48.96;96770.69;6156107;23;20029;-77
2023/03/27 11:06:33;;;;;;;4.15;0.90;;;;;;;7.49;48.08;96767.66;6156371;23;20029;-78
2023/03/27 11:09:04;;;;;;;4.38;0.90;;;;;;;7.70;47.96;96769.81;6155809;23;20056;-77
2023/03/27 11:11:36;;;;;;;3.97;1.15;;;;;;;7.84;48.13;96771.78;6155040;23;20467;-77
2023/03/27 11:14:09;;;;;;;2.83;1.17;;;;;;;7.86;49.02;96779.44;6155889;23;20362;-78
2023/03/27 11:16:41;;;;;;;4.38;1.42;;;;;;;7.76;48.67;96784.78;6155835;23;20056;-78
2023/03/27 11:19:36;;;;;;;5.20;1.67;;;;;;;7.54;46.60;96780.16;6155938;23;20028;-78
2023/03/27 11:22:07;;;;;;;2.08;1.13;;;;;;;7.44;50.86;96780.31;6128696;23;20025;-78
2023/03/27 11:24:41;;;;;;;6.95;0.95;;;;;;;7.49;49.21;96779.84;6156177;23;20018;-77
2023/03/27 11:27:13;;;;;;;8.05;1.60;;;;;;;7.62;47.99;96782.78;6155589;23;20467;-77
2023/03/27 11:29:48;;;;;;;3.97;1.15;;;;;;;7.78;48.73;96782.84;6155044;23;20130;-77
2023/03/27 11:32:24;;;;;;;5.93;0.98;;;;;;;7.95;46.09;96782.84;6155100;23;20032;-77
2023/03/27 11:34:57;;;;;;;3.97;0.82;;;;;;;8.02;44.32;96789.00;6155454;23;20022;-77
2023/03/27 11:37:34;;;;;;;1.55;0.70;;;;;;;7.97;43.35;96804.28;6155613;23;20027;-78
2023/03/27 11:40:09;;;;;;;6.88;1.05;;;;;;;7.76;46.20;96797.75;6155689;23;20028;-78
2023/03/27 11:42:42;;;;;;;3.58;1.00;;;;;;;7.59;47.29;96802.09;6155060;23;20029;-78
2023/03/27 11:45:12;;;;;;;3.50;1.30;;;;;;;7.49;46.90;96801.41;6155322;23;20362;-77
2023/03/27 11:47:52;;;;;;;3.83;0.88;;;;;;;7.30;47.32;96802.47;6155752;23;20021;-77
2023/03/27 11:50:32;;;;;;;3.53;0.63;;;;;;;7.15;46.58;96804.84;6155278;23;20053;-77
2023/03/27 11:53:15;;;;;;;3.65;0.70;;;;;;;7.01;47.65;96814.00;6155062;23;20049;-77
2023/03/27 11:55:51;;;;;;;;;;;;;;;6.92;45.87;96808.94;6156040;23;20104;-77
2023/03/27 11:58:31;;;;;;;2.35;1.13;;;;;;;6.89;47.80;96810.06;6155171;23;19924;-77
2023/03/27 12:01:06;;;;;;;3.53;0.73;;;;;;;6.85;48.66;96810.53;6155181;23;20021;-78
2023/03/27 12:04:07;;;;;;;2.25;0.68;;;;;;;6.85;44.79;96826.88;6154990;23;20072;-77